KVOK/VOK METAR and TAF weather

Enter ICAO airport designator
Station Type Date Time Source
KVOK METAR 2022/06/30 01:56 UTC NOAA

KVOK 300156Z 13005KT 10SM FEW100 FEW180 23/18 A3000 RMK AO2A SLP159


Station Type Date Time Source
KVOK Decoded METAR 2022/06/30 01:56 UTC NOAA

Volk / Camp Douglas, WI, United States (KVOK) 43-56N 090-16W
Jun 29, 2022 - 09:56 PM EDT / 2022.06.30 0156 UTC
Wind: from the SE (130 degrees) at 6 MPH (5 KT):0
Visibility: 10 mile(s):0
Sky conditions: mostly clear
Temperature: 73 F (23 C)
Dew Point: 64 F (18 C)
Relative Humidity: 73%
Pressure (altimeter): 30 in. Hg (1015 hPa)
ob: KVOK 300156Z 13005KT 10SM FEW100 FEW180 23/18 A3000 RMK AO2A SLP159
cycle: 2

Station Type Date Time Source
KVOK TAF 2022/06/29 17:06 UTC NOAA

TAF KVOK 291700Z 2917/3023 VRB06KT 9999 OVC017 QNH3010INS
BECMG 2918/2920 VRB06KT 9999 SCT020 QNH3010INS
BECMG 2920/2921 16012KT 9999 FEW100 QNH2985INS
BECMG 3019/3020 21020G25KT 9999 FEW100 BKN200 QNH2984INS
BECMG 3020/3021 21015KT 9999 SCT150 QNH2980INS TX26/2922Z TN20/2917Z LAST NO
AMDS AFT 2922 NEXT 3009

Example: see airport list